createdAt,value
2019-03-31T08:22:09.668Z,36.55
2019-03-31T08:24:45.801Z,41.05
2019-03-31T08:27:16.816Z,40.03
2019-03-31T08:29:55.408Z,37.28
2019-03-31T08:32:19.274Z,39.20
2019-03-31T08:34:49.676Z,41.25
2019-03-31T08:37:20.056Z,36.68
2019-03-31T08:39:50.452Z,33.98
2019-03-31T08:42:20.821Z,34.73
2019-03-31T08:44:51.220Z,35.30
2019-03-31T08:47:21.757Z,35.88
2019-03-31T08:49:52.149Z,33.15
2019-03-31T08:52:22.528Z,31.50
2019-03-31T08:54:52.949Z,24.37
2019-03-31T08:57:23.324Z,23.98
2019-03-31T08:59:53.719Z,28.35
2019-03-31T09:02:25.722Z,23.65
2019-03-31T09:04:56.126Z,23.22
2019-03-31T09:07:26.509Z,19.12
2019-03-31T09:09:56.900Z,21.80
2019-03-31T09:12:27.273Z,21.75
2019-03-31T09:14:57.662Z,24.32
2019-03-31T09:17:28.035Z,21.20
2019-03-31T09:19:58.440Z,21.42
2019-03-31T09:22:28.806Z,18.70
2019-03-31T09:24:59.196Z,18.62
2019-03-31T09:27:29.563Z,17.92
2019-03-31T09:29:59.950Z,16.77
2019-03-31T09:32:30.317Z,17.90
2019-03-31T09:35:00.713Z,18.37
2019-03-31T09:37:31.080Z,17.42
2019-03-31T09:40:01.468Z,14.47
2019-03-31T09:42:31.831Z,16.27
2019-03-31T09:45:02.222Z,16.17
2019-03-31T09:47:32.586Z,20.72
2019-03-31T09:50:03.353Z,19.23
2019-03-31T09:52:33.711Z,17.20
2019-03-31T09:55:06.647Z,21.45
2019-03-31T09:57:37.030Z,17.82
2019-03-31T10:00:17.632Z,13.65
2019-03-31T10:02:48.008Z,13.20
2019-03-31T10:05:18.839Z,16.82
2019-03-31T10:07:49.203Z,16.60
2019-03-31T10:10:33.277Z,17.65
2019-03-31T10:13:03.641Z,14.45
2019-03-31T10:15:34.051Z,15.90
2019-03-31T10:18:04.402Z,15.70
2019-03-31T10:20:35.217Z,15.55
2019-03-31T10:23:06.027Z,13.65
2019-03-31T10:25:40.497Z,13.08
2019-03-31T10:28:10.830Z,9.98
2019-03-31T10:30:42.112Z,9.60
2019-03-31T10:33:12.476Z,7.95
2019-03-31T10:35:42.939Z,7.10
2019-03-31T10:38:13.314Z,10.82
2019-03-31T10:40:44.099Z,14.50
2019-03-31T10:43:14.466Z,11.80
2019-03-31T10:45:44.863Z,10.65
2019-03-31T10:48:20.967Z,11.48
2019-03-31T10:50:47.473Z,9.83
2019-03-31T10:53:18.058Z,7.45
2019-03-31T10:55:48.450Z,8.65
2019-03-31T10:58:18.992Z,8.05
2019-03-31T11:00:49.384Z,8.20
2019-03-31T11:03:20.086Z,10.05
2019-03-31T11:05:50.474Z,9.53
2019-03-31T11:08:20.829Z,10.82
2019-03-31T11:10:51.215Z,11.73
2019-03-31T11:13:21.661Z,12.75
2019-03-31T11:15:52.053Z,9.58
2019-03-31T11:18:22.536Z,8.93
2019-03-31T11:20:53.123Z,10.30
2019-03-31T11:23:25.403Z,8.40
2019-03-31T11:25:56.162Z,10.72
2019-03-31T11:28:26.532Z,10.00
2019-03-31T11:30:57.256Z,8.05
2019-03-31T11:33:27.694Z,10.65
2019-03-31T11:35:58.185Z,9.85
2019-03-31T11:38:28.642Z,10.93
2019-03-31T11:40:59.025Z,10.55
2019-03-31T11:43:29.403Z,11.33
2019-03-31T11:45:59.793Z,6.65
2019-03-31T11:48:30.154Z,7.28
2019-03-31T11:51:00.619Z,7.17
2019-03-31T11:53:31.014Z,7.50
2019-03-31T11:56:01.390Z,8.03
2019-03-31T11:58:35.866Z,8.73
2019-03-31T12:01:06.210Z,7.67
2019-03-31T12:03:36.671Z,9.15
2019-03-31T12:06:11.383Z,6.47
2019-03-31T12:08:41.971Z,6.50
2019-03-31T12:11:12.338Z,7.00
2019-03-31T12:13:42.728Z,6.67
2019-03-31T12:16:13.112Z,7.75
2019-03-31T12:18:43.489Z,7.45
2019-03-31T12:21:13.851Z,7.53
2019-03-31T12:23:44.226Z,7.80
2019-03-31T12:26:14.584Z,8.30
2019-03-31T12:28:44.974Z,10.95
2019-03-31T12:31:27.928Z,6.95
2019-03-31T12:33:59.373Z,6.62
2019-03-31T12:36:29.936Z,6.30
2019-03-31T12:39:00.348Z,6.83
2019-03-31T12:41:30.865Z,5.87
2019-03-31T12:44:01.240Z,4.85
2019-03-31T12:46:31.600Z,4.87
2019-03-31T12:49:02.318Z,6.33
2019-03-31T12:51:32.669Z,5.05
2019-03-31T12:54:03.060Z,5.12
2019-03-31T12:56:33.414Z,4.92
2019-03-31T12:59:04.050Z,5.08
2019-03-31T13:01:34.406Z,5.55
2019-03-31T13:04:05.051Z,6.53
2019-03-31T13:06:35.505Z,5.75
2019-03-31T13:09:08.522Z,7.17
2019-03-31T13:11:40.420Z,4.60
2019-03-31T13:14:10.926Z,5.30
2019-03-31T13:16:41.277Z,7.15
2019-03-31T13:19:11.722Z,5.47
2019-03-31T13:21:42.060Z,4.42
2019-03-31T13:24:12.620Z,5.40
2019-03-31T13:26:43.081Z,3.30
2019-03-31T13:29:13.515Z,13.18
2019-03-31T13:31:43.884Z,4.67
2019-03-31T13:34:15.316Z,6.55
2019-03-31T13:36:45.653Z,6.67
2019-03-31T13:39:16.135Z,7.22
2019-03-31T13:41:47.192Z,8.58
2019-03-31T13:44:18.078Z,9.05
2019-03-31T13:46:48.470Z,7.92
2019-03-31T13:49:18.867Z,10.35
2019-03-31T13:51:49.219Z,4.45
2019-03-31T13:54:19.604Z,7.70
2019-03-31T13:56:50.668Z,6.92
2019-03-31T13:59:21.232Z,5.95
2019-03-31T14:01:51.599Z,6.50
2019-03-31T14:04:21.980Z,4.47
2019-03-31T14:06:52.334Z,4.40
2019-03-31T14:09:22.721Z,6.90
2019-03-31T14:11:53.133Z,5.37
2019-03-31T14:14:23.528Z,4.97
2019-03-31T14:16:53.888Z,7.30
2019-03-31T14:19:24.332Z,5.00
2019-03-31T14:21:54.748Z,5.05
2019-03-31T14:24:26.970Z,5.90
2019-03-31T14:26:57.187Z,3.87
2019-03-31T14:29:27.569Z,8.80
2019-03-31T14:31:57.923Z,5.33
2019-03-31T14:34:28.338Z,7.37
2019-03-31T14:36:58.699Z,8.75
2019-03-31T14:39:30.150Z,4.42
2019-03-31T14:42:00.511Z,6.33
2019-03-31T14:44:30.905Z,6.83
2019-03-31T14:47:01.255Z,6.60
2019-03-31T14:49:31.648Z,5.97
2019-03-31T14:52:02.012Z,6.10
2019-03-31T14:54:32.394Z,5.80
2019-03-31T14:57:05.777Z,3.58
2019-03-31T14:59:34.846Z,6.58
2019-03-31T15:02:05.199Z,8.95
2019-03-31T15:04:35.580Z,6.05
2019-03-31T15:07:05.949Z,5.37
2019-03-31T15:09:36.327Z,4.33
2019-03-31T15:12:06.695Z,5.75
2019-03-31T15:14:37.085Z,6.28
2019-03-31T15:17:07.440Z,4.53
2019-03-31T15:19:37.820Z,6.12
2019-03-31T15:22:08.180Z,10.65
2019-03-31T15:24:38.581Z,8.65
2019-03-31T15:27:08.926Z,5.00
2019-03-31T15:29:39.320Z,6.40
2019-03-31T15:32:09.682Z,4.58
2019-03-31T15:34:40.062Z,5.70
2019-03-31T15:37:10.424Z,6.17
2019-03-31T15:39:40.813Z,4.75
2019-03-31T15:42:11.178Z,5.90
2019-03-31T15:44:41.566Z,6.62
2019-03-31T15:47:11.962Z,6.22
2019-03-31T15:49:42.326Z,8.30
2019-03-31T15:52:12.711Z,5.12
2019-03-31T15:54:43.079Z,6.00
2019-03-31T15:57:13.462Z,5.30
2019-03-31T15:59:53.839Z,7.75
2019-03-31T16:02:25.864Z,4.42
2019-03-31T16:04:56.249Z,5.15
2019-03-31T16:07:26.641Z,5.30
2019-03-31T16:09:57.005Z,7.60
2019-03-31T16:12:27.404Z,4.80
2019-03-31T16:14:57.764Z,2.70
2019-03-31T16:17:28.154Z,4.22
2019-03-31T16:19:58.510Z,6.65
2019-03-31T16:22:28.916Z,4.03
2019-03-31T16:25:00.918Z,4.37
2019-03-31T16:27:31.857Z,7.20
2019-03-31T16:30:02.282Z,2.75
2019-03-31T16:32:32.880Z,4.58
2019-03-31T16:35:03.740Z,4.78
2019-03-31T16:37:34.703Z,4.92
2019-03-31T16:40:07.854Z,4.67
2019-03-31T16:42:38.517Z,4.75
2019-03-31T16:45:09.066Z,2.60
2019-03-31T16:47:39.990Z,3.92
2019-03-31T16:50:11.323Z,4.28
2019-03-31T16:52:54.076Z,3.25
2019-03-31T16:55:24.724Z,5.58
2019-03-31T16:57:55.615Z,4.50
2019-03-31T17:00:26.151Z,2.92
2019-03-31T17:02:57.013Z,3.95
2019-03-31T17:05:27.707Z,4.30
2019-03-31T17:07:58.281Z,3.52
2019-03-31T17:10:29.191Z,6.42
2019-03-31T17:12:59.759Z,3.45
2019-03-31T17:15:30.246Z,6.08
2019-03-31T17:18:01.516Z,1.82
2019-03-31T17:20:33.738Z,6.00
2019-03-31T17:23:04.260Z,3.35
2019-03-31T17:25:34.802Z,2.83
2019-03-31T17:28:05.632Z,4.35
2019-03-31T17:30:36.193Z,4.53
2019-03-31T17:33:06.966Z,3.62
2019-03-31T17:35:38.869Z,9.60
2019-03-31T17:38:09.407Z,6.35
2019-03-31T17:40:40.046Z,7.08
2019-03-31T17:43:10.858Z,7.05
2019-03-31T17:45:41.419Z,8.40
2019-03-31T17:48:12.044Z,9.58
2019-03-31T17:50:44.128Z,5.17
2019-03-31T17:53:14.935Z,5.95
2019-03-31T17:55:45.353Z,9.00
2019-03-31T17:58:16.201Z,4.65
2019-03-31T18:00:46.605Z,9.10
2019-03-31T18:03:17.191Z,8.00
2019-03-31T18:05:48.857Z,6.15
2019-03-31T18:08:19.725Z,9.23
2019-03-31T18:10:50.211Z,7.33
2019-03-31T18:13:21.046Z,5.47
2019-03-31T18:15:51.712Z,10.10
2019-03-31T18:18:22.298Z,9.90
2019-03-31T18:20:53.073Z,9.33
2019-03-31T18:23:23.587Z,6.80
2019-03-31T18:25:54.005Z,7.83
2019-03-31T18:28:24.376Z,7.12
2019-03-31T18:30:54.730Z,7.33
2019-03-31T18:33:25.111Z,5.92
2019-03-31T18:35:55.709Z,7.05
2019-03-31T18:38:26.083Z,6.90
2019-03-31T18:40:56.440Z,8.25
2019-03-31T18:43:26.809Z,6.20
2019-03-31T18:45:57.349Z,7.53
2019-03-31T18:48:27.720Z,9.90
2019-03-31T18:50:58.159Z,12.13
2019-03-31T18:53:32.679Z,12.23
2019-03-31T18:56:13.501Z,8.73
2019-03-31T18:58:45.485Z,9.75
2019-03-31T19:01:33.799Z,9.33
2019-03-31T19:04:12.026Z,9.45
2019-03-31T19:06:44.031Z,12.13
2019-03-31T19:09:22.024Z,6.35
2019-03-31T19:12:10.616Z,8.88
2019-03-31T19:14:45.336Z,8.68
2019-03-31T19:17:34.642Z,7.05
2019-03-31T19:20:19.241Z,7.08
2019-03-31T19:22:51.237Z,7.00
2019-03-31T19:25:32.239Z,7.72
2019-03-31T19:28:10.422Z,9.70
2019-03-31T19:31:00.690Z,7.87
2019-03-31T19:33:48.909Z,6.00
2019-03-31T19:36:20.923Z,7.97
2019-03-31T19:39:09.474Z,11.33
2019-03-31T19:41:41.589Z,7.95
2019-03-31T19:44:29.906Z,12.28
2019-03-31T19:47:01.914Z,10.32
2019-03-31T19:49:36.855Z,13.18
2019-03-31T19:52:18.978Z,8.88
2019-03-31T19:54:57.088Z,8.88
2019-03-31T19:57:35.414Z,5.05
2019-03-31T20:00:09.950Z,12.40
2019-03-31T20:02:45.261Z,8.13
2019-03-31T20:05:23.501Z,6.78
2019-03-31T20:08:01.564Z,7.03
2019-03-31T20:10:33.622Z,6.00
2019-03-31T20:13:06.556Z,9.33
2019-03-31T20:15:38.573Z,8.33
2019-03-31T20:18:27.000Z,10.93
2019-03-31T20:21:31.862Z,7.90
2019-03-31T20:24:10.407Z,5.83
2019-03-31T20:26:42.851Z,6.90
2019-03-31T20:29:14.843Z,8.70
2019-03-31T20:31:46.863Z,9.43
2019-03-31T20:34:27.589Z,7.20
2019-03-31T20:37:15.800Z,11.43
2019-03-31T20:39:56.432Z,7.28
2019-03-31T20:42:24.190Z,4.17
2019-03-31T20:44:54.590Z,8.83
2019-03-31T20:47:24.977Z,7.12
2019-03-31T20:49:55.321Z,12.25
2019-03-31T20:52:25.735Z,4.55
2019-03-31T20:54:56.087Z,6.62
2019-03-31T20:57:26.471Z,7.40
2019-03-31T20:59:56.819Z,7.53
2019-03-31T21:02:27.194Z,7.40
2019-03-31T21:04:57.545Z,8.20
2019-03-31T21:07:28.885Z,8.28
2019-03-31T21:09:59.233Z,6.35
2019-03-31T21:12:29.636Z,13.93
2019-03-31T21:14:59.987Z,9.28
2019-03-31T21:17:30.382Z,8.75
2019-03-31T21:20:00.760Z,11.03
2019-03-31T21:22:31.115Z,7.08
2019-03-31T21:25:01.466Z,8.40
2019-03-31T21:27:31.853Z,10.65
2019-03-31T21:30:02.207Z,19.23
2019-03-31T21:32:32.576Z,9.55
2019-03-31T21:35:03.131Z,11.85
2019-03-31T21:37:33.488Z,8.60
2019-03-31T21:40:05.909Z,9.40
2019-03-31T21:42:36.265Z,6.97
2019-03-31T21:45:07.171Z,9.13
2019-03-31T21:47:37.516Z,6.90
2019-03-31T21:50:09.112Z,8.40
2019-03-31T21:52:39.459Z,7.25
2019-03-31T21:55:09.900Z,6.12
2019-03-31T21:57:40.255Z,11.03
2019-03-31T22:00:12.520Z,9.08
2019-03-31T22:02:44.476Z,6.70
2019-03-31T22:05:14.860Z,6.40
2019-03-31T22:07:45.205Z,6.42
2019-03-31T22:10:15.576Z,6.85
2019-03-31T22:12:46.016Z,4.92
2019-03-31T22:15:16.718Z,9.33
2019-03-31T22:17:47.220Z,10.10
2019-03-31T22:20:17.704Z,8.48
2019-03-31T22:22:48.064Z,6.10
2019-03-31T22:25:18.501Z,7.92
2019-03-31T22:27:48.791Z,13.95
2019-03-31T22:30:19.170Z,4.53
2019-03-31T22:32:49.515Z,10.70
2019-03-31T22:35:19.883Z,7.05
2019-03-31T22:37:50.238Z,7.85
2019-03-31T22:40:20.605Z,8.28
2019-03-31T22:42:50.952Z,9.05
2019-03-31T22:45:21.333Z,6.55
2019-03-31T22:47:51.690Z,9.55
2019-03-31T22:50:22.073Z,11.28
2019-03-31T22:52:52.428Z,10.28
2019-03-31T22:55:22.796Z,6.03
2019-03-31T22:57:53.150Z,4.97
2019-03-31T23:00:25.177Z,10.53
2019-03-31T23:02:55.520Z,9.03
2019-03-31T23:05:25.890Z,10.08
2019-03-31T23:07:56.249Z,8.58
2019-03-31T23:10:26.625Z,3.70
2019-03-31T23:12:56.975Z,10.03
2019-03-31T23:15:27.351Z,5.78
2019-03-31T23:17:57.700Z,8.65
2019-03-31T23:20:28.075Z,8.43
2019-03-31T23:22:58.432Z,6.70
2019-03-31T23:25:28.804Z,9.25
2019-03-31T23:27:59.153Z,10.48
2019-03-31T23:30:29.537Z,10.05
2019-03-31T23:32:59.884Z,8.73
2019-03-31T23:35:30.262Z,8.75
2019-03-31T23:38:00.613Z,8.93
2019-03-31T23:40:30.987Z,7.55
2019-03-31T23:43:01.336Z,8.83
2019-03-31T23:45:32.749Z,8.95
2019-03-31T23:48:03.102Z,6.65
2019-03-31T23:50:33.472Z,7.85
2019-03-31T23:53:03.845Z,8.18
2019-03-31T23:55:34.194Z,10.25
2019-03-31T23:58:04.635Z,6.65
